createdAt,value
2017-05-05T00:00:48.896Z,89.90
2017-05-05T00:03:16.138Z,89.90
2017-05-05T00:05:43.397Z,89.90
2017-05-05T00:08:10.679Z,90.30
2017-05-05T00:10:37.972Z,90.40
2017-05-05T00:13:06.155Z,90.40
2017-05-05T00:15:33.648Z,91.00
2017-05-05T00:18:00.932Z,90.90
2017-05-05T00:20:28.276Z,91.00
2017-05-05T00:22:55.658Z,91.00
2017-05-05T00:25:22.931Z,91.00
2017-05-05T00:27:50.204Z,90.80
2017-05-05T00:30:25.311Z,90.40
2017-05-05T00:32:52.756Z,90.40
2017-05-05T00:35:20.156Z,90.50
2017-05-05T00:37:48.213Z,90.50
2017-05-05T00:40:15.472Z,90.90
2017-05-05T00:42:42.744Z,90.90
2017-05-05T00:45:10.811Z,90.80
2017-05-05T00:47:38.085Z,90.70
2017-05-05T00:50:06.155Z,90.50
2017-05-05T00:52:34.202Z,90.60
2017-05-05T00:55:01.500Z,90.30
2017-05-05T00:57:29.553Z,90.40
2017-05-05T00:59:56.820Z,90.40
2017-05-05T01:02:24.124Z,90.40
2017-05-05T01:04:51.432Z,90.40
2017-05-05T01:07:18.792Z,90.40
2017-05-05T01:09:46.106Z,90.20
2017-05-05T01:12:13.376Z,90.20
2017-05-05T01:14:40.655Z,90.30
2017-05-05T01:17:07.950Z,90.20
2017-05-05T01:19:36.092Z,90.20
2017-05-05T01:22:03.364Z,90.20
2017-05-05T01:24:30.652Z,90.00
2017-05-05T01:26:57.956Z,90.20
2017-05-05T01:29:25.224Z,89.90
2017-05-05T01:31:52.585Z,89.80
2017-05-05T01:34:19.831Z,89.80
2017-05-05T01:36:47.163Z,89.20
2017-05-05T01:39:14.495Z,89.30
2017-05-05T01:41:42.511Z,89.30
2017-05-05T01:44:09.795Z,89.00
2017-05-05T01:46:37.909Z,88.70
2017-05-05T01:49:05.209Z,88.60
2017-05-05T01:51:32.588Z,88.70
2017-05-05T01:53:59.830Z,88.60
2017-05-05T01:56:27.060Z,88.70
2017-05-05T01:58:54.324Z,89.00
2017-05-05T02:01:21.627Z,89.20
2017-05-05T02:03:49.204Z,89.50
2017-05-05T02:06:16.472Z,89.30
2017-05-05T02:08:44.478Z,89.50
2017-05-05T02:11:11.750Z,89.60
2017-05-05T02:13:39.011Z,89.80
2017-05-05T02:16:06.311Z,89.80
2017-05-05T02:18:33.761Z,89.70
2017-05-05T02:21:01.030Z,89.60
2017-05-05T02:23:28.331Z,89.80
2017-05-05T02:25:55.585Z,89.80
2017-05-05T02:28:22.895Z,89.80
2017-05-05T02:30:50.149Z,90.00
2017-05-05T02:33:17.424Z,90.00
2017-05-05T02:35:45.512Z,90.10
2017-05-05T02:38:20.448Z,90.00
2017-05-05T02:40:48.479Z,90.00
2017-05-05T02:43:15.727Z,90.00
2017-05-05T02:45:43.003Z,90.00
2017-05-05T02:48:10.357Z,90.10
2017-05-05T02:50:37.763Z,90.30
2017-05-05T02:53:05.756Z,90.40
2017-05-05T02:55:33.188Z,90.80
2017-05-05T02:58:01.214Z,90.50
2017-05-05T03:00:28.491Z,90.60
2017-05-05T03:02:55.791Z,90.80
2017-05-05T03:05:23.835Z,90.90
2017-05-05T03:07:51.121Z,91.10
2017-05-05T03:10:19.196Z,91.10
2017-05-05T03:12:47.320Z,91.10
2017-05-05T03:15:14.855Z,91.00
2017-05-05T03:17:42.092Z,90.80
2017-05-05T03:20:10.155Z,90.60
2017-05-05T03:22:37.604Z,90.90
2017-05-05T03:25:04.896Z,90.80
2017-05-05T03:27:39.954Z,90.80
2017-05-05T03:30:07.356Z,91.00
2017-05-05T03:32:34.612Z,91.00
2017-05-05T03:35:01.997Z,91.10
2017-05-05T03:37:29.989Z,91.00
2017-05-05T03:39:57.261Z,91.00
2017-05-05T03:42:24.529Z,90.90
2017-05-05T03:44:51.811Z,91.00
2017-05-05T03:47:19.092Z,91.20
2017-05-05T03:49:46.398Z,91.20
2017-05-05T03:52:13.692Z,91.20
2017-05-05T03:54:41.356Z,91.10
2017-05-05T03:57:08.611Z,91.00
2017-05-05T03:59:36.771Z,91.10
2017-05-05T04:02:04.104Z,91.10
2017-05-05T04:04:31.352Z,91.50
2017-05-05T04:06:59.320Z,91.10
2017-05-05T04:09:27.365Z,91.30
2017-05-05T04:11:54.658Z,91.50
2017-05-05T04:14:22.752Z,91.10
2017-05-05T04:16:50.021Z,90.90
2017-05-05T04:19:17.489Z,91.00
2017-05-05T04:21:44.767Z,91.10
2017-05-05T04:24:12.039Z,91.20
2017-05-05T04:26:39.324Z,90.90
2017-05-05T04:29:07.331Z,90.70
2017-05-05T04:31:34.624Z,90.60
2017-05-05T04:34:01.900Z,90.80
2017-05-05T04:36:29.182Z,90.70
2017-05-05T04:38:57.183Z,90.80
2017-05-05T04:41:24.459Z,90.90
2017-05-05T04:43:51.760Z,91.00
2017-05-05T04:46:19.005Z,91.20
2017-05-05T04:48:46.287Z,91.50
2017-05-05T04:51:14.326Z,91.60
2017-05-05T04:53:41.566Z,91.60
2017-05-05T04:56:08.923Z,91.70
2017-05-05T04:58:36.278Z,91.70
2017-05-05T05:01:03.559Z,91.60
2017-05-05T05:03:30.819Z,91.60
2017-05-05T05:05:58.081Z,91.50
2017-05-05T05:08:25.332Z,91.30
2017-05-05T05:10:52.640Z,91.70
2017-05-05T05:13:20.251Z,91.70
2017-05-05T05:15:47.494Z,92.00
2017-05-05T05:18:14.746Z,91.90
2017-05-05T05:20:42.109Z,91.70
2017-05-05T05:23:09.396Z,91.70
2017-05-05T05:25:36.659Z,91.40
2017-05-05T05:28:03.968Z,91.10
2017-05-05T05:30:31.241Z,91.00
2017-05-05T05:32:58.517Z,90.90
2017-05-05T05:35:25.767Z,90.80
2017-05-05T05:37:53.097Z,90.80
2017-05-05T05:40:20.340Z,90.90
2017-05-05T05:42:48.353Z,90.90
2017-05-05T05:45:15.615Z,91.10
2017-05-05T05:47:42.957Z,91.80
2017-05-05T05:50:10.229Z,91.70
2017-05-05T05:52:37.551Z,92.50
2017-05-05T05:55:04.911Z,92.10
2017-05-05T05:57:39.936Z,91.90
2017-05-05T06:00:07.940Z,91.50
2017-05-05T06:02:35.291Z,92.00
2017-05-05T06:05:02.539Z,91.90
2017-05-05T06:07:29.820Z,92.90
2017-05-05T06:09:57.210Z,92.90
2017-05-05T06:12:24.503Z,92.50
2017-05-05T06:14:52.885Z,92.10
2017-05-05T06:17:20.916Z,92.40
2017-05-05T06:19:48.185Z,92.20
2017-05-05T06:22:15.591Z,92.20
2017-05-05T06:24:43.672Z,92.50
2017-05-05T06:27:10.939Z,92.40
2017-05-05T06:29:38.217Z,91.60
2017-05-05T06:32:05.484Z,91.80
2017-05-05T06:34:32.793Z,92.20
2017-05-05T06:37:00.860Z,92.50
2017-05-05T06:39:28.155Z,91.20
2017-05-05T06:41:55.441Z,91.30
2017-05-05T06:44:28.591Z,90.90
2017-05-05T06:46:56.359Z,90.90
2017-05-05T06:49:24.384Z,91.40
2017-05-05T06:51:51.698Z,90.90
2017-05-05T06:54:18.996Z,90.70
2017-05-05T06:56:46.324Z,91.00
2017-05-05T06:59:13.708Z,90.70
2017-05-05T07:01:41.001Z,90.50
2017-05-05T07:04:08.385Z,90.10
2017-05-05T07:06:36.411Z,90.40
2017-05-05T07:09:03.966Z,90.20
2017-05-05T07:11:31.514Z,90.00
2017-05-05T07:13:58.771Z,90.30
2017-05-05T07:16:25.995Z,90.30
2017-05-05T07:18:54.018Z,90.00
2017-05-05T07:21:21.286Z,89.70
2017-05-05T07:23:48.599Z,88.90
2017-05-05T07:26:16.583Z,88.60
2017-05-05T07:28:44.017Z,88.80
2017-05-05T07:31:11.336Z,89.10
2017-05-05T07:33:38.571Z,87.50
2017-05-05T07:36:05.843Z,86.60
2017-05-05T07:38:33.102Z,87.40
2017-05-05T07:41:00.452Z,86.60
2017-05-05T07:43:27.789Z,86.60
2017-05-05T07:45:55.058Z,85.40
2017-05-05T07:48:22.358Z,86.10
2017-05-05T07:50:49.739Z,83.80
2017-05-05T07:53:16.960Z,82.90
2017-05-05T07:55:44.217Z,82.80
2017-05-05T07:58:11.477Z,82.40
2017-05-05T08:00:38.741Z,82.70
2017-05-05T08:03:06.059Z,79.30
2017-05-05T08:05:33.367Z,77.30
2017-05-05T08:08:00.655Z,77.50
2017-05-05T08:10:28.731Z,79.00
2017-05-05T08:12:56.746Z,77.90
2017-05-05T08:15:24.051Z,76.80
2017-05-05T08:17:51.321Z,76.70
2017-05-05T08:20:19.353Z,76.20
2017-05-05T08:22:46.670Z,76.30
2017-05-05T08:25:14.709Z,77.00
2017-05-05T08:27:41.992Z,73.90
2017-05-05T08:30:10.170Z,73.60
2017-05-05T08:32:38.170Z,71.30
2017-05-05T08:35:05.575Z,70.40
2017-05-05T08:37:32.863Z,68.50
2017-05-05T08:40:00.928Z,69.50
2017-05-05T08:42:28.261Z,71.00
2017-05-05T08:44:55.543Z,70.30
2017-05-05T08:47:22.831Z,69.60
2017-05-05T08:49:50.867Z,70.10
2017-05-05T08:52:18.107Z,69.10
2017-05-05T08:54:45.458Z,67.80
2017-05-05T08:57:12.782Z,64.50
2017-05-05T08:59:40.787Z,64.80
2017-05-05T09:02:08.075Z,57.90
2017-05-05T09:04:35.389Z,54.10
2017-05-05T09:07:02.644Z,52.20
2017-05-05T09:09:29.933Z,52.50
2017-05-05T09:11:57.223Z,50.00
2017-05-05T09:14:24.495Z,51.80
2017-05-05T09:16:59.724Z,53.40
2017-05-05T09:19:27.024Z,54.20
2017-05-05T09:21:54.608Z,54.90
2017-05-05T09:24:22.293Z,53.50
2017-05-05T09:26:49.600Z,52.20
2017-05-05T09:29:17.703Z,51.50
2017-05-05T09:31:44.988Z,52.30
2017-05-05T09:34:12.294Z,52.80
2017-05-05T09:36:39.573Z,52.10
2017-05-05T09:39:06.828Z,50.00
2017-05-05T09:41:34.153Z,49.70
2017-05-05T09:44:01.413Z,47.90
2017-05-05T09:46:29.419Z,47.50
2017-05-05T09:48:56.721Z,47.60
2017-05-05T09:51:24.175Z,49.60
2017-05-05T09:53:51.437Z,48.90
2017-05-05T09:56:18.704Z,50.10
2017-05-05T09:58:46.008Z,51.10
2017-05-05T10:01:13.290Z,46.80
2017-05-05T10:03:40.547Z,44.80
2017-05-05T10:06:07.839Z,46.60
2017-05-05T10:08:35.108Z,47.50
2017-05-05T10:11:02.433Z,47.80
2017-05-05T10:13:29.688Z,50.80
2017-05-05T10:15:57.046Z,47.20
2017-05-05T10:18:24.308Z,47.10
2017-05-05T10:20:51.639Z,49.20
2017-05-05T10:23:18.884Z,51.60
2017-05-05T10:25:46.205Z,50.90
2017-05-05T10:28:13.560Z,52.20
2017-05-05T10:30:40.836Z,52.80
2017-05-05T10:33:08.121Z,50.20
2017-05-05T10:35:35.415Z,49.90
2017-05-05T10:38:02.687Z,49.00
2017-05-05T10:40:29.984Z,50.80
2017-05-05T10:42:58.043Z,51.00
2017-05-05T10:45:25.368Z,49.70
2017-05-05T10:47:52.635Z,49.30
2017-05-05T10:50:19.925Z,49.80
2017-05-05T10:52:47.236Z,48.90
2017-05-05T10:55:14.563Z,48.90
2017-05-05T10:57:41.944Z,48.40
2017-05-05T11:00:09.223Z,47.40
2017-05-05T11:02:36.496Z,47.20
2017-05-05T11:05:03.729Z,47.80
2017-05-05T11:07:30.965Z,49.00
2017-05-05T11:09:58.252Z,49.60
2017-05-05T11:12:25.527Z,48.80
2017-05-05T11:14:52.814Z,46.40
2017-05-05T11:17:20.856Z,48.40
2017-05-05T11:19:48.129Z,48.10
2017-05-05T11:22:15.616Z,47.70
2017-05-05T11:24:43.776Z,47.50
2017-05-05T11:27:11.063Z,44.90
2017-05-05T11:29:38.423Z,44.10
2017-05-05T11:32:05.683Z,45.00
2017-05-05T11:34:32.951Z,43.90
2017-05-05T11:37:00.207Z,43.70
2017-05-05T11:39:27.490Z,44.50
2017-05-05T11:41:54.836Z,45.70
2017-05-05T11:44:22.196Z,41.90
2017-05-05T11:46:49.548Z,44.50
2017-05-05T11:49:16.839Z,40.50
2017-05-05T11:51:44.104Z,41.80
2017-05-05T11:54:11.424Z,41.40
2017-05-05T11:56:38.729Z,43.70
2017-05-05T11:59:06.063Z,42.90
2017-05-05T12:01:33.349Z,40.90
2017-05-05T12:04:00.623Z,42.20
2017-05-05T12:06:27.983Z,44.00
2017-05-05T12:08:55.196Z,44.60
2017-05-05T12:11:22.484Z,43.50
2017-05-05T12:13:50.961Z,43.70
2017-05-05T12:16:18.271Z,44.30
2017-05-05T12:18:45.579Z,46.20
2017-05-05T12:21:12.893Z,47.90
2017-05-05T12:23:40.176Z,48.70
2017-05-05T12:26:07.455Z,49.20
2017-05-05T12:28:34.736Z,50.80
2017-05-05T12:31:02.012Z,50.70
2017-05-05T12:33:36.202Z,52.20
2017-05-05T12:36:03.459Z,51.80
2017-05-05T12:38:30.744Z,52.40
2017-05-05T12:40:58.891Z,51.50
2017-05-05T12:43:26.159Z,51.70
2017-05-05T12:45:54.163Z,51.40
2017-05-05T12:48:21.485Z,49.50
2017-05-05T12:50:48.753Z,50.40
2017-05-05T12:53:16.116Z,49.20
2017-05-05T12:55:43.407Z,48.40
2017-05-05T12:58:10.663Z,49.20
2017-05-05T13:00:38.067Z,50.30
2017-05-05T13:03:05.319Z,49.70
2017-05-05T13:05:32.634Z,49.40
2017-05-05T13:07:59.997Z,50.30
2017-05-05T13:10:27.315Z,50.20
2017-05-05T13:12:54.630Z,50.20
2017-05-05T13:15:21.920Z,47.70
2017-05-05T13:17:49.218Z,48.90
2017-05-05T13:20:17.292Z,48.90
2017-05-05T13:22:45.407Z,50.80
2017-05-05T13:25:12.715Z,50.50
2017-05-05T13:27:40.099Z,49.30
2017-05-05T13:30:07.400Z,49.80
2017-05-05T13:32:34.704Z,50.70
2017-05-05T13:35:02.685Z,50.20
2017-05-05T13:37:30.691Z,50.50
2017-05-05T13:39:57.965Z,49.20
2017-05-05T13:42:25.472Z,48.60
2017-05-05T13:44:53.560Z,47.70
2017-05-05T13:47:21.605Z,47.60
2017-05-05T13:49:48.935Z,44.90
2017-05-05T13:52:16.208Z,46.30
2017-05-05T13:54:43.492Z,45.70
2017-05-05T13:57:11.552Z,44.90
2017-05-05T13:59:38.832Z,48.30
2017-05-05T14:02:06.815Z,46.30
2017-05-05T14:04:34.853Z,46.70
2017-05-05T14:07:02.188Z,47.90
2017-05-05T14:09:29.516Z,46.30
2017-05-05T14:11:56.796Z,46.20
2017-05-05T14:14:24.178Z,46.20
2017-05-05T14:16:51.449Z,45.60
2017-05-05T14:19:18.733Z,45.70
2017-05-05T14:21:47.005Z,45.60
2017-05-05T14:24:14.263Z,44.80
2017-05-05T14:26:41.574Z,45.30
2017-05-05T14:29:08.833Z,44.90
2017-05-05T14:31:36.143Z,46.40
2017-05-05T14:34:03.512Z,46.10
2017-05-05T14:36:31.517Z,46.80
2017-05-05T14:38:58.819Z,47.90
2017-05-05T14:41:26.104Z,47.60
2017-05-05T14:43:54.112Z,47.60
2017-05-05T14:46:21.366Z,45.50
2017-05-05T14:48:48.661Z,45.80
2017-05-05T14:51:16.117Z,45.00
2017-05-05T14:53:43.465Z,49.30
2017-05-05T14:56:17.664Z,45.50
2017-05-05T14:58:44.952Z,45.60
2017-05-05T15:01:12.271Z,44.60
2017-05-05T15:03:39.589Z,47.00
2017-05-05T15:06:06.889Z,44.80
2017-05-05T15:08:34.160Z,45.20
2017-05-05T15:11:01.435Z,45.30
2017-05-05T15:13:28.739Z,44.00
2017-05-05T15:15:56.747Z,42.50
2017-05-05T15:18:24.077Z,41.70
2017-05-05T15:20:52.096Z,42.00
2017-05-05T15:23:19.376Z,41.90
2017-05-05T15:25:46.705Z,42.70
2017-05-05T15:28:13.967Z,42.00
2017-05-05T15:30:41.222Z,42.80
2017-05-05T15:33:08.497Z,42.70
2017-05-05T15:35:35.763Z,42.70
2017-05-05T15:38:03.080Z,43.60
2017-05-05T15:40:30.520Z,44.50
2017-05-05T15:42:58.548Z,44.70
2017-05-05T15:45:25.912Z,44.00
2017-05-05T15:47:53.204Z,43.70
2017-05-05T15:50:20.620Z,46.30
2017-05-05T15:52:47.956Z,44.90
2017-05-05T15:55:15.206Z,46.50
2017-05-05T15:57:43.227Z,48.60
2017-05-05T16:00:10.593Z,47.50
2017-05-05T16:02:37.923Z,48.60
2017-05-05T16:05:05.219Z,48.60
2017-05-05T16:07:32.546Z,48.80
2017-05-05T16:10:00.192Z,48.80
2017-05-05T16:12:27.499Z,48.10
2017-05-05T16:14:54.804Z,49.30
2017-05-05T16:17:22.108Z,47.90
2017-05-05T16:19:49.769Z,46.90
2017-05-05T16:22:17.059Z,45.40
2017-05-05T16:24:44.387Z,45.20
2017-05-05T16:27:11.661Z,48.90
2017-05-05T16:29:38.986Z,48.40
2017-05-05T16:32:06.301Z,48.80
2017-05-05T16:34:33.647Z,47.70
2017-05-05T16:37:00.956Z,48.10
2017-05-05T16:39:28.272Z,47.30
2017-05-05T16:41:55.588Z,47.90
2017-05-05T16:44:22.892Z,48.60
2017-05-05T16:46:50.191Z,48.80
2017-05-05T16:49:17.461Z,49.00
2017-05-05T16:51:44.742Z,50.40
2017-05-05T16:54:11.991Z,49.80
2017-05-05T16:56:39.278Z,50.20
2017-05-05T16:59:06.547Z,50.20
2017-05-05T17:01:33.875Z,49.70
2017-05-05T17:04:01.157Z,50.10
2017-05-05T17:06:28.460Z,49.10
2017-05-05T17:08:55.756Z,50.90
2017-05-05T17:11:23.076Z,53.60
2017-05-05T17:13:50.332Z,49.60
2017-05-05T17:16:17.629Z,52.30
2017-05-05T17:18:44.883Z,51.70
2017-05-05T17:21:12.186Z,53.00
2017-05-05T17:23:40.236Z,53.00
2017-05-05T17:26:07.493Z,55.00
2017-05-05T17:28:34.737Z,55.70
2017-05-05T17:31:02.022Z,55.60
2017-05-05T17:33:29.407Z,55.90
2017-05-05T17:35:56.688Z,56.50
2017-05-05T17:38:24.152Z,57.00
2017-05-05T17:40:51.461Z,57.50
2017-05-05T17:43:18.759Z,57.30
2017-05-05T17:45:46.074Z,58.20
2017-05-05T17:48:13.411Z,58.40
2017-05-05T17:50:40.952Z,59.00
2017-05-05T17:53:08.299Z,58.70
2017-05-05T17:55:35.751Z,59.00
2017-05-05T17:58:03.048Z,59.70
2017-05-05T18:00:30.316Z,59.90
2017-05-05T18:02:57.564Z,59.60
2017-05-05T18:05:24.864Z,59.80
2017-05-05T18:07:52.868Z,60.10
2017-05-05T18:10:20.120Z,61.10
2017-05-05T18:12:47.444Z,61.90
2017-05-05T18:15:14.809Z,61.20
2017-05-05T18:17:42.134Z,61.50
2017-05-05T18:20:09.409Z,61.90
2017-05-05T18:22:36.706Z,62.90
2017-05-05T18:25:11.711Z,63.10
2017-05-05T18:27:38.984Z,63.80
2017-05-05T18:30:07.000Z,64.30
2017-05-05T18:32:34.276Z,64.80
2017-05-05T18:35:01.606Z,65.10
2017-05-05T18:37:28.896Z,65.50
2017-05-05T18:39:56.192Z,66.10
2017-05-05T18:42:24.242Z,66.20
2017-05-05T18:44:58.541Z,66.40
2017-05-05T18:47:25.852Z,66.40
2017-05-05T18:49:54.115Z,66.90
2017-05-05T18:52:21.391Z,67.50
2017-05-05T18:54:49.468Z,68.00
2017-05-05T18:57:17.530Z,68.60
2017-05-05T18:59:45.033Z,69.30
2017-05-05T19:02:15.582Z,70.10
2017-05-05T19:04:42.926Z,70.50
2017-05-05T19:07:10.267Z,71.90
2017-05-05T19:09:38.372Z,71.50
2017-05-05T19:12:05.880Z,72.20
2017-05-05T19:14:33.196Z,72.90
2017-05-05T19:17:00.533Z,73.40
2017-05-05T19:19:27.864Z,73.20
2017-05-05T19:21:55.115Z,73.50
2017-05-05T19:24:22.444Z,73.70
2017-05-05T19:26:49.796Z,74.50
2017-05-05T19:29:17.053Z,75.90
2017-05-05T19:31:44.356Z,75.20
2017-05-05T19:34:11.616Z,75.40
2017-05-05T19:36:38.866Z,76.60
2017-05-05T19:39:06.200Z,77.90
2017-05-05T19:41:33.543Z,78.70
2017-05-05T19:44:00.879Z,79.20
2017-05-05T19:46:28.179Z,79.90
2017-05-05T19:48:55.518Z,79.10
2017-05-05T19:51:22.808Z,79.10
2017-05-05T19:53:50.141Z,79.50
2017-05-05T19:56:17.472Z,80.70
2017-05-05T19:58:44.785Z,80.30
2017-05-05T20:01:12.147Z,81.10
2017-05-05T20:03:39.461Z,82.20
2017-05-05T20:06:06.702Z,83.60
2017-05-05T20:08:34.711Z,82.90
2017-05-05T20:11:02.127Z,83.00
2017-05-05T20:13:30.316Z,83.20
2017-05-05T20:15:58.381Z,83.50
2017-05-05T20:18:26.439Z,83.00
2017-05-05T20:20:53.818Z,82.60
2017-05-05T20:23:21.836Z,82.60
2017-05-05T20:25:49.252Z,84.10
2017-05-05T20:28:16.549Z,84.10
2017-05-05T20:30:44.121Z,84.00
2017-05-05T20:33:11.463Z,83.80
2017-05-05T20:35:38.741Z,84.80
2017-05-05T20:38:06.021Z,84.40
2017-05-05T20:40:33.324Z,84.80
2017-05-05T20:43:01.388Z,85.10
2017-05-05T20:45:29.417Z,85.00
2017-05-05T20:47:56.772Z,85.00
2017-05-05T20:50:24.088Z,84.90
2017-05-05T20:52:52.339Z,85.00
2017-05-05T20:55:19.783Z,85.00
2017-05-05T20:57:47.059Z,85.40
2017-05-05T21:00:14.440Z,85.80
2017-05-05T21:02:41.792Z,85.70
2017-05-05T21:05:09.118Z,86.00
2017-05-05T21:07:36.496Z,85.00
2017-05-05T21:10:03.799Z,84.90
2017-05-05T21:12:31.820Z,85.70
2017-05-05T21:14:59.120Z,84.40
2017-05-05T21:17:27.144Z,85.40
2017-05-05T21:19:54.482Z,86.20
2017-05-05T21:22:21.777Z,86.60
2017-05-05T21:24:49.133Z,85.70
2017-05-05T21:27:16.613Z,85.90
2017-05-05T21:29:43.959Z,86.30
2017-05-05T21:32:11.345Z,86.60
2017-05-05T21:34:38.637Z,87.20
2017-05-05T21:37:06.164Z,86.80
2017-05-05T21:39:33.484Z,87.90
2017-05-05T21:42:00.785Z,87.40
2017-05-05T21:44:28.214Z,87.50
2017-05-05T21:46:55.495Z,88.30
2017-05-05T21:49:22.784Z,87.50
2017-05-05T21:51:50.153Z,88.00
2017-05-05T21:54:17.427Z,88.10
2017-05-05T21:56:44.830Z,88.50
2017-05-05T21:59:12.162Z,88.60
2017-05-05T22:01:39.460Z,88.20
2017-05-05T22:04:06.800Z,88.00
2017-05-05T22:06:34.100Z,88.20
2017-05-05T22:09:02.144Z,88.70
2017-05-05T22:11:29.466Z,89.20
2017-05-05T22:13:56.730Z,89.20
2017-05-05T22:16:24.132Z,89.20
2017-05-05T22:18:51.463Z,88.70
2017-05-05T22:21:18.752Z,88.20
2017-05-05T22:23:46.073Z,88.00
2017-05-05T22:26:13.387Z,87.90
2017-05-05T22:28:41.481Z,87.70
2017-05-05T22:31:08.801Z,87.50
2017-05-05T22:33:36.232Z,87.80
2017-05-05T22:36:03.540Z,88.40
2017-05-05T22:38:31.592Z,89.00
2017-05-05T22:40:58.882Z,89.10
2017-05-05T22:43:26.327Z,89.40
2017-05-05T22:45:54.383Z,89.60
2017-05-05T22:48:21.835Z,90.20
2017-05-05T22:50:49.150Z,90.10
2017-05-05T22:53:16.505Z,90.30
2017-05-05T22:55:43.779Z,90.30
2017-05-05T22:58:11.048Z,89.20
2017-05-05T23:00:38.421Z,89.30
2017-05-05T23:03:05.735Z,88.60
2017-05-05T23:05:33.151Z,90.10
2017-05-05T23:08:00.418Z,89.40
2017-05-05T23:10:27.686Z,90.00
2017-05-05T23:12:55.032Z,89.50
2017-05-05T23:15:22.351Z,88.60
2017-05-05T23:17:49.632Z,89.60
2017-05-05T23:20:16.934Z,89.90
2017-05-05T23:22:44.264Z,90.00
2017-05-05T23:25:11.524Z,90.10
2017-05-05T23:27:38.781Z,89.00
2017-05-05T23:30:06.045Z,88.50
2017-05-05T23:32:33.343Z,87.60
2017-05-05T23:35:00.631Z,87.90
2017-05-05T23:37:27.895Z,87.80
2017-05-05T23:39:55.217Z,85.90
2017-05-05T23:42:23.315Z,86.40
2017-05-05T23:44:50.604Z,86.40
2017-05-05T23:47:17.880Z,85.50
2017-05-05T23:49:45.272Z,85.10
2017-05-05T23:52:13.267Z,83.00
2017-05-05T23:54:40.573Z,82.60
2017-05-05T23:57:07.864Z,82.20
2017-05-05T23:59:35.931Z,81.70
